sensor_id;sensor_type;location;lat;lon;timestamp;pressure;altitude;pressure_sealevel;temperature;humidity
10392;BME280;5242;49.244;6.774;2023-04-19T00:07:10;100142.78;;;9.09;77.23
10392;BME280;5242;49.244;6.774;2023-04-19T00:15:02;100142.19;;;9.03;79.25
10392;BME280;5242;49.244;6.774;2023-04-19T00:22:53;100130.72;;;8.98;81.89
10392;BME280;5242;49.244;6.774;2023-04-19T00:30:45;100144.00;;;8.90;80.56
10392;BME280;5242;49.244;6.774;2023-04-19T00:38:37;100137.16;;;8.84;82.85
10392;BME280;5242;49.244;6.774;2023-04-19T00:46:29;100142.75;;;8.79;83.44
10392;BME280;5242;49.244;6.774;2023-04-19T00:54:22;100127.28;;;8.80;81.46
10392;BME280;5242;49.244;6.774;2023-04-19T01:02:13;100133.31;;;8.85;82.98
10392;BME280;5242;49.244;6.774;2023-04-19T01:10:06;100126.91;;;8.90;83.89
10392;BME280;5242;49.244;6.774;2023-04-19T01:17:57;100117.75;;;8.95;84.39
10392;BME280;5242;49.244;6.774;2023-04-19T01:25:49;100120.28;;;9.00;85.17
10392;BME280;5242;49.244;6.774;2023-04-19T01:33:41;100112.63;;;9.02;84.87
10392;BME280;5242;49.244;6.774;2023-04-19T01:41:33;100104.47;;;9.02;84.46
10392;BME280;5242;49.244;6.774;2023-04-19T01:49:24;100112.13;;;9.00;83.82
10392;BME280;5242;49.244;6.774;2023-04-19T01:57:16;100092.50;;;9.03;84.25
10392;BME280;5242;49.244;6.774;2023-04-19T02:05:09;100091.47;;;9.07;84.34
10392;BME280;5242;49.244;6.774;2023-04-19T02:13:01;100086.03;;;9.07;83.40
10392;BME280;5242;49.244;6.774;2023-04-19T02:20:54;100079.81;;;9.07;83.43
10392;BME280;5242;49.244;6.774;2023-04-19T02:28:46;100070.09;;;9.06;83.44
10392;BME280;5242;49.244;6.774;2023-04-19T02:36:38;100081.06;;;9.09;83.61
10392;BME280;5242;49.244;6.774;2023-04-19T02:44:29;100078.75;;;9.20;83.67
10392;BME280;5242;49.244;6.774;2023-04-19T02:52:21;100078.91;;;9.24;83.16
10392;BME280;5242;49.244;6.774;2023-04-19T03:00:14;100078.25;;;9.27;82.51
10392;BME280;5242;49.244;6.774;2023-04-19T03:08:06;100075.41;;;9.23;83.16
10392;BME280;5242;49.244;6.774;2023-04-19T03:15:58;100067.88;;;9.20;82.42
10392;BME280;5242;49.244;6.774;2023-04-19T03:23:50;100065.84;;;9.17;82.65
10392;BME280;5242;49.244;6.774;2023-04-19T03:31:42;100074.84;;;9.09;83.33
10392;BME280;5242;49.244;6.774;2023-04-19T03:39:34;100065.31;;;9.03;82.54
10392;BME280;5242;49.244;6.774;2023-04-19T03:47:26;100044.56;;;8.98;83.84
10392;BME280;5242;49.244;6.774;2023-04-19T03:55:18;100057.56;;;8.92;83.79
10392;BME280;5242;49.244;6.774;2023-04-19T04:03:10;100054.41;;;8.82;83.95
10392;BME280;5242;49.244;6.774;2023-04-19T04:11:02;100052.41;;;8.70;84.88
10392;BME280;5242;49.244;6.774;2023-04-19T04:18:54;100063.81;;;8.55;84.37
10392;BME280;5242;49.244;6.774;2023-04-19T04:26:46;100064.19;;;8.44;86.64
10392;BME280;5242;49.244;6.774;2023-04-19T04:34:40;100066.91;;;8.44;87.12
10392;BME280;5242;49.244;6.774;2023-04-19T04:42:33;100070.28;;;8.41;87.75
10392;BME280;5242;49.244;6.774;2023-04-19T04:50:26;100075.84;;;8.36;86.86
10392;BME280;5242;49.244;6.774;2023-04-19T04:58:18;100064.03;;;8.32;88.12
10392;BME280;5242;49.244;6.774;2023-04-19T05:06:11;100071.03;;;8.33;88.29
10392;BME280;5242;49.244;6.774;2023-04-19T05:14:03;100074.25;;;8.44;88.80
10392;BME280;5242;49.244;6.774;2023-04-19T05:21:55;100074.69;;;8.55;89.05
10392;BME280;5242;49.244;6.774;2023-04-19T05:29:46;100071.56;;;8.95;86.44
10392;BME280;5242;49.244;6.774;2023-04-19T05:37:38;100078.94;;;8.94;87.06
10392;BME280;5242;49.244;6.774;2023-04-19T05:45:32;100078.91;;;9.03;86.62
10392;BME280;5242;49.244;6.774;2023-04-19T05:53:24;100083.09;;;9.21;85.81
10392;BME280;5242;49.244;6.774;2023-04-19T06:01:15;100077.31;;;9.44;84.89
10392;BME280;5242;49.244;6.774;2023-04-19T06:09:07;100077.81;;;9.58;83.75
10392;BME280;5242;49.244;6.774;2023-04-19T06:16:59;100087.72;;;9.63;83.88
10392;BME280;5242;49.244;6.774;2023-04-19T06:24:51;100090.81;;;9.73;83.22
10392;BME280;5242;49.244;6.774;2023-04-19T06:32:43;100096.19;;;9.82;82.39
10392;BME280;5242;49.244;6.774;2023-04-19T06:40:35;100098.81;;;9.91;82.00
10392;BME280;5242;49.244;6.774;2023-04-19T06:48:26;100089.13;;;10.14;81.76
10392;BME280;5242;49.244;6.774;2023-04-19T06:56:40;100092.63;;;10.36;79.67
10392;BME280;5242;49.244;6.774;2023-04-19T07:04:38;100087.84;;;10.45;78.91
10392;BME280;5242;49.244;6.774;2023-04-19T07:12:30;100091.16;;;10.63;78.70
10392;BME280;5242;49.244;6.774;2023-04-19T07:20:22;100090.13;;;10.68;77.48
10392;BME280;5242;49.244;6.774;2023-04-19T07:28:14;100092.88;;;10.80;76.77
10392;BME280;5242;49.244;6.774;2023-04-19T07:36:06;100092.63;;;10.85;76.55
10392;BME280;5242;49.244;6.774;2023-04-19T07:43:58;100096.28;;;10.89;76.23
10392;BME280;5242;49.244;6.774;2023-04-19T07:51:50;100088.91;;;10.90;75.79
10392;BME280;5242;49.244;6.774;2023-04-19T07:59:42;100082.84;;;10.96;76.10
10392;BME280;5242;49.244;6.774;2023-04-19T08:07:34;100082.38;;;11.06;75.56
10392;BME280;5242;49.244;6.774;2023-04-19T08:15:26;100079.06;;;11.25;74.97
10392;BME280;5242;49.244;6.774;2023-04-19T08:23:21;100072.53;;;11.42;74.14
10392;BME280;5242;49.244;6.774;2023-04-19T08:31:20;100069.81;;;11.70;73.55
10392;BME280;5242;49.244;6.774;2023-04-19T08:39:12;100064.19;;;11.91;71.66
10392;BME280;5242;49.244;6.774;2023-04-19T08:47:23;100066.31;;;12.14;69.94
10392;BME280;5242;49.244;6.774;2023-04-19T08:55:25;100062.53;;;12.34;68.36
10392;BME280;5242;49.244;6.774;2023-04-19T09:03:18;100060.81;;;12.58;66.80
10392;BME280;5242;49.244;6.774;2023-04-19T09:11:10;100053.69;;;12.89;65.45
10392;BME280;5242;49.244;6.774;2023-04-19T09:19:02;100046.03;;;13.30;59.95
10392;BME280;5242;49.244;6.774;2023-04-19T09:26:59;100025.28;;;14.13;60.17
10392;BME280;5242;49.244;6.774;2023-04-19T09:34:55;100030.50;;;14.95;54.26
10392;BME280;5242;49.244;6.774;2023-04-19T09:42:47;100026.41;;;14.55;55.77
10392;BME280;5242;49.244;6.774;2023-04-19T09:51:00;100011.50;;;14.06;57.16
10392;BME280;5242;49.244;6.774;2023-04-19T09:58:59;99995.16;;;14.13;54.85
10392;BME280;5242;49.244;6.774;2023-04-19T10:07:04;99997.72;;;14.26;55.99
10392;BME280;5242;49.244;6.774;2023-04-19T10:15:19;99994.34;;;14.36;56.28
10392;BME280;5242;49.244;6.774;2023-04-19T10:23:12;99973.28;;;14.93;54.52
10392;BME280;5242;49.244;6.774;2023-04-19T10:31:04;99974.19;;;14.74;54.36
10392;BME280;5242;49.244;6.774;2023-04-19T10:38:56;99977.66;;;15.32;53.72
10392;BME280;5242;49.244;6.774;2023-04-19T10:46:48;99973.09;;;15.09;53.91
10392;BME280;5242;49.244;6.774;2023-04-19T10:54:39;99963.91;;;14.98;54.47
10392;BME280;5242;49.244;6.774;2023-04-19T11:02:31;99966.16;;;14.59;55.06
10392;BME280;5242;49.244;6.774;2023-04-19T11:10:30;99950.81;;;14.31;55.94
10392;BME280;5242;49.244;6.774;2023-04-19T11:18:28;99937.09;;;14.54;56.43
10392;BME280;5242;49.244;6.774;2023-04-19T11:26:22;99916.56;;;15.38;54.56
10392;BME280;5242;49.244;6.774;2023-04-19T11:34:14;99918.16;;;15.06;54.02
10392;BME280;5242;49.244;6.774;2023-04-19T11:42:16;99899.75;;;14.72;54.87
10392;BME280;5242;49.244;6.774;2023-04-19T11:50:37;99898.06;;;14.94;54.34
10392;BME280;5242;49.244;6.774;2023-04-19T11:58:37;99877.94;;;15.17;54.04
10392;BME280;5242;49.244;6.774;2023-04-19T12:06:30;99877.69;;;14.62;54.96
10392;BME280;5242;49.244;6.774;2023-04-19T12:14:22;99891.34;;;14.05;56.76
10392;BME280;5242;49.244;6.774;2023-04-19T12:22:16;99894.59;;;13.87;57.20
10392;BME280;5242;49.244;6.774;2023-04-19T12:30:10;99884.50;;;13.91;56.37
10392;BME280;5242;49.244;6.774;2023-04-19T12:38:02;99883.03;;;13.98;56.39
10392;BME280;5242;49.244;6.774;2023-04-19T12:45:54;99866.59;;;13.98;56.27
10392;BME280;5242;49.244;6.774;2023-04-19T12:53:47;99852.69;;;14.10;56.29
10392;BME280;5242;49.244;6.774;2023-04-19T13:01:40;99849.75;;;14.52;56.18
10392;BME280;5242;49.244;6.774;2023-04-19T13:09:31;99844.06;;;14.98;54.63
10392;BME280;5242;49.244;6.774;2023-04-19T13:17:23;99816.94;;;16.41;52.34
10392;BME280;5242;49.244;6.774;2023-04-19T13:25:15;99808.84;;;18.17;47.17
10392;BME280;5242;49.244;6.774;2023-04-19T13:33:07;99797.09;;;16.98;48.46
10392;BME280;5242;49.244;6.774;2023-04-19T13:41:01;99789.88;;;16.54;49.56
10392;BME280;5242;49.244;6.774;2023-04-19T13:48:54;99782.56;;;15.99;49.90
10392;BME280;5242;49.244;6.774;2023-04-19T13:56:46;99768.91;;;15.07;50.69
10392;BME280;5242;49.244;6.774;2023-04-19T14:04:40;99771.88;;;14.53;52.83
10392;BME280;5242;49.244;6.774;2023-04-19T14:12:32;99770.06;;;14.04;54.48
10392;BME280;5242;49.244;6.774;2023-04-19T14:20:24;99763.88;;;13.81;55.00
10392;BME280;5242;49.244;6.774;2023-04-19T14:28:16;99755.78;;;13.61;55.69
10392;BME280;5242;49.244;6.774;2023-04-19T14:36:08;99744.22;;;13.45;56.67
10392;BME280;5242;49.244;6.774;2023-04-19T14:44:00;99718.22;;;13.58;55.69
10392;BME280;5242;49.244;6.774;2023-04-19T14:51:52;99715.41;;;13.81;55.07
10392;BME280;5242;49.244;6.774;2023-04-19T14:59:44;99704.94;;;14.21;53.90
10392;BME280;5242;49.244;6.774;2023-04-19T15:07:37;99691.44;;;14.76;52.19
10392;BME280;5242;49.244;6.774;2023-04-19T15:15:29;99675.16;;;14.97;49.44
10392;BME280;5242;49.244;6.774;2023-04-19T15:23:24;99675.38;;;15.26;49.63
10392;BME280;5242;49.244;6.774;2023-04-19T15:31:16;99667.56;;;15.28;48.36
10392;BME280;5242;49.244;6.774;2023-04-19T15:39:08;99669.56;;;15.35;47.22
10392;BME280;5242;49.244;6.774;2023-04-19T15:47:00;99665.28;;;15.37;45.44
10392;BME280;5242;49.244;6.774;2023-04-19T15:54:52;99661.28;;;15.24;44.29
10392;BME280;5242;49.244;6.774;2023-04-19T16:02:44;99672.13;;;15.06;44.44
10392;BME280;5242;49.244;6.774;2023-04-19T16:10:36;99660.91;;;14.77;44.45
10392;BME280;5242;49.244;6.774;2023-04-19T16:18:29;99662.25;;;14.53;44.23
10392;BME280;5242;49.244;6.774;2023-04-19T16:26:21;99663.66;;;14.40;44.11
10392;BME280;5242;49.244;6.774;2023-04-19T16:34:13;99658.88;;;14.33;44.17
10392;BME280;5242;49.244;6.774;2023-04-19T16:42:06;99652.13;;;14.24;42.70
10392;BME280;5242;49.244;6.774;2023-04-19T16:49:59;99647.41;;;14.21;43.02
10392;BME280;5242;49.244;6.774;2023-04-19T16:57:51;99654.00;;;14.16;41.44
10392;BME280;5242;49.244;6.774;2023-04-19T17:05:44;99655.09;;;14.08;40.91
10392;BME280;5242;49.244;6.774;2023-04-19T17:13:36;99649.91;;;13.99;39.98
10392;BME280;5242;49.244;6.774;2023-04-19T17:21:28;99652.44;;;13.81;38.26
10392;BME280;5242;49.244;6.774;2023-04-19T17:29:20;99658.81;;;13.62;38.64
10392;BME280;5242;49.244;6.774;2023-04-19T17:37:12;99658.25;;;13.49;38.33
10392;BME280;5242;49.244;6.774;2023-04-19T17:45:04;99669.59;;;13.48;39.62
10392;BME280;5242;49.244;6.774;2023-04-19T17:53:01;99663.78;;;13.26;38.52
10392;BME280;5242;49.244;6.774;2023-04-19T18:00:53;99678.94;;;12.97;37.77
10392;BME280;5242;49.244;6.774;2023-04-19T18:08:44;99683.22;;;12.72;36.78
10392;BME280;5242;49.244;6.774;2023-04-19T18:16:36;99680.03;;;12.47;35.37
10392;BME280;5242;49.244;6.774;2023-04-19T18:24:28;99683.94;;;12.26;36.05
10392;BME280;5242;49.244;6.774;2023-04-19T18:32:20;99696.75;;;12.03;36.19
10392;BME280;5242;49.244;6.774;2023-04-19T18:40:14;99699.41;;;11.83;36.17
10392;BME280;5242;49.244;6.774;2023-04-19T18:48:06;99699.97;;;11.73;34.51
10392;BME280;5242;49.244;6.774;2023-04-19T18:55:59;99702.03;;;11.60;33.91
10392;BME280;5242;49.244;6.774;2023-04-19T19:03:51;99719.59;;;11.43;34.55
10392;BME280;5242;49.244;6.774;2023-04-19T19:12:04;99721.13;;;11.25;35.15
10392;BME280;5242;49.244;6.774;2023-04-19T19:19:56;99725.06;;;11.12;35.01
10392;BME280;5242;49.244;6.774;2023-04-19T19:27:48;99730.06;;;10.94;34.96
10392;BME280;5242;49.244;6.774;2023-04-19T19:35:58;99738.22;;;10.78;35.83
10392;BME280;5242;49.244;6.774;2023-04-19T19:43:50;99734.72;;;10.61;35.24
10392;BME280;5242;49.244;6.774;2023-04-19T19:51:42;99742.94;;;10.49;35.33
10392;BME280;5242;49.244;6.774;2023-04-19T19:59:49;99743.50;;;10.42;35.34
10392;BME280;5242;49.244;6.774;2023-04-19T20:07:47;99751.16;;;10.37;35.77
10392;BME280;5242;49.244;6.774;2023-04-19T20:15:53;99741.06;;;10.25;36.35
10392;BME280;5242;49.244;6.774;2023-04-19T20:23:45;99745.06;;;10.15;36.48
10392;BME280;5242;49.244;6.774;2023-04-19T20:31:37;99738.75;;;9.99;36.68
10392;BME280;5242;49.244;6.774;2023-04-19T20:39:29;99749.66;;;9.87;36.94
10392;BME280;5242;49.244;6.774;2023-04-19T20:47:21;99743.81;;;9.72;37.36
10392;BME280;5242;49.244;6.774;2023-04-19T20:55:13;99754.25;;;9.58;37.81
10392;BME280;5242;49.244;6.774;2023-04-19T21:03:05;99749.25;;;9.48;38.13
10392;BME280;5242;49.244;6.774;2023-04-19T21:10:57;99754.69;;;9.35;38.38
10392;BME280;5242;49.244;6.774;2023-04-19T21:18:49;99747.66;;;9.22;38.51
10392;BME280;5242;49.244;6.774;2023-04-19T21:26:42;99751.50;;;9.09;38.82
10392;BME280;5242;49.244;6.774;2023-04-19T21:34:34;99743.00;;;8.98;39.02
10392;BME280;5242;49.244;6.774;2023-04-19T21:42:25;99755.09;;;8.88;39.13
10392;BME280;5242;49.244;6.774;2023-04-19T21:50:17;99756.69;;;8.77;39.41
10392;BME280;5242;49.244;6.774;2023-04-19T21:58:09;99755.03;;;8.64;39.63
10392;BME280;5242;49.244;6.774;2023-04-19T22:06:01;99758.16;;;8.54;39.75
10392;BME280;5242;49.244;6.774;2023-04-19T22:13:54;99752.03;;;8.44;39.91
10392;BME280;5242;49.244;6.774;2023-04-19T22:21:45;99748.31;;;8.28;40.63
10392;BME280;5242;49.244;6.774;2023-04-19T22:29:37;99747.06;;;8.04;41.80
10392;BME280;5242;49.244;6.774;2023-04-19T22:37:30;99737.97;;;7.58;42.33
10392;BME280;5242;49.244;6.774;2023-04-19T22:45:21;99741.47;;;6.91;44.61
10392;BME280;5242;49.244;6.774;2023-04-19T22:53:13;99736.78;;;6.53;47.55
10392;BME280;5242;49.244;6.774;2023-04-19T23:01:05;99727.59;;;6.19;47.27
10392;BME280;5242;49.244;6.774;2023-04-19T23:08:57;99718.50;;;5.89;48.62
10392;BME280;5242;49.244;6.774;2023-04-19T23:16:51;99713.84;;;5.55;48.95
10392;BME280;5242;49.244;6.774;2023-04-19T23:24:45;99695.34;;;5.31;49.18
10392;BME280;5242;49.244;6.774;2023-04-19T23:32:37;99697.69;;;5.15;51.42
10392;BME280;5242;49.244;6.774;2023-04-19T23:40:29;99696.63;;;4.85;49.29
10392;BME280;5242;49.244;6.774;2023-04-19T23:48:20;99685.22;;;4.56;52.71
10392;BME280;5242;49.244;6.774;2023-04-19T23:56:12;99684.75;;;4.32;52.84
